Time;durP1;ratioP1;P1;durP2;ratioP2;P2;SDS_P1;SDS_P2;PMS_P1;PMS_P2;Temp;Humidity;BMP_temperature;BMP_pressure;BME280_temperature;BME280_humidity;BME280_pressure;Samples;Min_cycle;Max_cycle;Signal;HPM_P1;HPM_P2
2021/09/19 00:02:17;;;;;;;9.07;7.45;;;12.10;99.90;;;;;;5069994;28;20026;-84
2021/09/19 00:04:43;;;;;;;8.68;7.43;;;12.10;99.90;;;;;;5058411;28;20429;-84
2021/09/19 00:07:08;;;;;;;8.15;7.30;;;12.20;99.90;;;;;;5054553;28;20021;-85
2021/09/19 00:09:34;;;;;;;7.95;7.15;;;12.10;99.90;;;;;;5063788;28;20107;-85
2021/09/19 00:12:00;;;;;;;8.52;7.43;;;12.10;99.90;;;;;;5073382;28;20489;-85
2021/09/19 00:14:26;;;;;;;7.78;6.75;;;12.10;99.90;;;;;;5069872;28;20021;-83
2021/09/19 00:16:52;;;;;;;7.85;7.07;;;12.10;99.90;;;;;;5057224;28;20043;-85
2021/09/19 00:19:19;;;;;;;9.48;7.93;;;12.10;99.90;;;;;;5060994;28;20029;-84
2021/09/19 00:21:45;;;;;;;9.70;7.40;;;12.10;99.90;;;;;;5064263;28;20390;-84
2021/09/19 00:24:11;;;;;;;9.50;8.50;;;12.10;99.90;;;;;;5055530;28;20029;-85
2021/09/19 00:26:37;;;;;;;9.07;7.03;;;12.00;99.90;;;;;;5055871;28;20044;-84
2021/09/19 00:29:03;;;;;;;7.07;6.38;;;12.00;99.90;;;;;;5055972;28;20021;-83
2021/09/19 00:31:29;;;;;;;8.10;6.30;;;12.00;99.90;;;;;;5055320;28;20021;-83
2021/09/19 00:33:54;;;;;;;6.85;6.15;;;12.00;99.90;;;;;;5063261;28;20024;-84
2021/09/19 00:36:20;;;;;;;6.97;5.85;;;12.00;99.90;;;;;;5056499;28;20013;-84
2021/09/19 00:38:46;;;;;;;7.15;6.43;;;12.00;99.90;;;;;;5063027;28;20082;-83
2021/09/19 00:41:11;;;;;;;7.57;6.60;;;12.00;99.90;;;;;;5067073;28;20037;-84
2021/09/19 00:43:37;;;;;;;9.57;7.35;;;12.00;99.90;;;;;;5075503;28;20424;-85
2021/09/19 00:46:03;;;;;;;9.45;7.95;;;12.00;99.90;;;;;;5062511;28;20025;-84
2021/09/19 00:48:29;;;;;;;10.32;8.52;;;12.00;99.90;;;;;;5054562;28;20039;-84
2021/09/19 00:50:54;;;;;;;11.55;8.93;;;11.90;99.90;;;;;;5064654;28;20020;-84
2021/09/19 00:53:21;;;;;;;9.90;8.77;;;11.90;99.90;;;;;;5070255;28;20025;-85
2021/09/19 00:55:49;;;;;;;11.20;9.68;;;11.80;99.90;;;;;;5057822;28;20033;-84
2021/09/19 00:58:17;;;;;;;10.38;9.27;;;11.80;99.90;;;;;;5055703;28;20067;-84
2021/09/19 01:00:48;;;;;;;11.52;9.52;;;11.70;99.90;;;;;;5055670;28;20127;-84
2021/09/19 01:03:16;;;;;;;10.88;9.70;;;11.70;99.90;;;;;;5066013;28;20056;-85
2021/09/19 01:05:44;;;;;;;13.13;10.35;;;11.60;99.90;;;;;;5073238;28;21148;-84
2021/09/19 01:08:14;;;;;;;11.13;9.68;;;11.60;99.90;;;;;;5055566;28;20025;-84
2021/09/19 01:10:40;;;;;;;13.13;10.43;;;11.60;99.90;;;;;;5066653;28;20448;-85
2021/09/19 01:13:06;;;;;;;10.70;8.75;;;11.50;99.90;;;;;;5076380;28;20028;-85
2021/09/19 01:15:32;;;;;;;14.60;10.82;;;11.50;99.90;;;;;;5077215;28;20021;-85
2021/09/19 01:17:59;;;;;;;13.52;10.77;;;11.40;99.90;;;;;;5056782;28;20401;-84
2021/09/19 01:20:26;;;;;;;14.40;12.00;;;11.40;99.90;;;;;;5055356;28;20489;-84
2021/09/19 01:23:10;;;;;;;17.60;13.80;;;11.40;99.90;;;;;;5054584;28;20022;-84
2021/09/19 01:25:38;;;;;;;16.90;13.02;;;11.40;99.90;;;;;;5054892;28;20036;-84
2021/09/19 01:28:05;;;;;;;14.02;12.00;;;11.40;99.90;;;;;;5053591;28;20104;-84
2021/09/19 01:30:31;;;;;;;13.93;11.43;;;11.40;99.90;;;;;;5054379;28;20109;-85
2021/09/19 01:32:57;;;;;;;11.27;9.13;;;11.40;99.90;;;;;;5062740;28;20662;-85
2021/09/19 01:35:23;;;;;;;11.45;9.07;;;11.40;99.90;;;;;;5062660;28;20025;-85
2021/09/19 01:37:49;;;;;;;10.35;9.02;;;11.40;99.90;;;;;;5054124;28;20029;-85
2021/09/19 01:40:16;;;;;;;10.50;9.23;;;11.40;99.90;;;;;;5053985;28;20021;-85
2021/09/19 01:42:42;;;;;;;10.43;8.70;;;11.40;99.90;;;;;;5055774;28;20029;-85
2021/09/19 01:45:09;;;;;;;9.30;7.90;;;11.40;99.90;;;;;;5059124;28;20025;-85
2021/09/19 01:47:35;;;;;;;9.88;8.85;;;11.50;99.90;;;;;;5057899;28;20021;-85
2021/09/19 01:50:02;;;;;;;8.82;7.90;;;11.50;99.90;;;;;;5057817;28;20041;-85
2021/09/19 01:52:30;;;;;;;8.73;7.43;;;11.50;99.90;;;;;;5060036;28;20034;-83
2021/09/19 01:54:57;;;;;;;7.60;6.53;;;11.50;99.90;;;;;;5060748;28;20067;-85
2021/09/19 01:57:23;;;;;;;7.93;6.82;;;11.50;99.90;;;;;;5065730;28;20029;-83
2021/09/19 01:59:54;;;;;;;9.63;7.70;;;11.50;99.90;;;;;;5060465;28;20389;-83
2021/09/19 02:02:20;;;;;;;11.07;8.90;;;11.50;99.90;;;;;;5066298;28;20021;-84
2021/09/19 02:04:46;;;;;;;10.52;8.90;;;11.50;99.90;;;;;;5068724;28;20021;-84
2021/09/19 02:07:12;;;;;;;11.75;10.07;;;11.40;99.90;;;;;;5063521;28;20132;-82
2021/09/19 02:09:38;;;;;;;13.10;9.82;;;11.40;99.90;;;;;;5079864;28;20031;-85
2021/09/19 02:12:05;;;;;;;12.13;9.35;;;11.40;99.90;;;;;;5067254;28;20029;-84
2021/09/19 02:14:31;;;;;;;13.75;10.25;;;11.40;99.90;;;;;;5058572;28;20069;-85
2021/09/19 02:16:57;;;;;;;15.70;12.27;;;11.40;99.90;;;;;;5059312;28;20024;-83
2021/09/19 02:19:23;;;;;;;15.88;12.13;;;11.40;99.90;;;;;;5058984;28;20025;-84
2021/09/19 02:21:48;;;;;;;15.43;12.35;;;11.30;99.90;;;;;;5060145;28;20028;-83
2021/09/19 02:24:14;;;;;;;16.50;12.38;;;11.30;99.90;;;;;;5059936;28;20021;-84
2021/09/19 02:26:40;;;;;;;15.55;11.85;;;11.20;99.90;;;;;;5065762;28;20291;-84
2021/09/19 02:29:05;;;;;;;15.55;12.10;;;11.20;99.90;;;;;;5076482;28;20044;-84
2021/09/19 02:31:31;;;;;;;14.50;12.52;;;11.20;99.90;;;;;;5077055;28;20017;-83
2021/09/19 02:33:58;;;;;;;17.08;12.95;;;11.10;99.90;;;;;;5077787;28;20009;-84
2021/09/19 02:36:24;;;;;;;16.95;12.52;;;11.10;99.90;;;;;;5097514;28;20031;-83
2021/09/19 02:38:50;;;;;;;16.17;12.60;;;11.10;99.90;;;;;;5093540;28;20013;-83
2021/09/19 02:41:15;;;;;;;18.02;14.43;;;11.10;99.90;;;;;;5077461;28;20084;-83
2021/09/19 02:43:41;;;;;;;25.15;17.17;;;11.10;99.90;;;;;;5076793;28;20009;-83
2021/09/19 02:46:07;;;;;;;27.38;20.50;;;11.00;99.90;;;;;;5064128;28;20031;-83
2021/09/19 02:48:33;;;;;;;22.50;17.90;;;11.00;99.90;;;;;;5061861;28;20052;-84
2021/09/19 02:51:00;;;;;;;22.65;17.02;;;11.00;99.90;;;;;;5066463;28;20060;-85
2021/09/19 02:53:26;;;;;;;20.90;15.32;;;10.90;99.90;;;;;;5064324;28;20868;-85
2021/09/19 02:55:53;;;;;;;17.48;12.75;;;10.90;99.90;;;;;;5062939;28;20033;-85
2021/09/19 02:58:18;;;;;;;14.25;11.93;;;10.90;99.90;;;;;;5062931;28;20036;-83
2021/09/19 03:00:44;;;;;;;14.43;11.55;;;10.90;99.90;;;;;;5060639;28;20032;-84
2021/09/19 03:03:11;;;;;;;18.83;15.35;;;10.80;99.90;;;;;;5065074;28;20039;-85
2021/09/19 03:05:37;;;;;;;17.20;13.63;;;10.70;99.90;;;;;;5073750;28;20024;-85
2021/09/19 03:08:03;;;;;;;16.70;14.05;;;10.70;99.90;;;;;;5077671;28;20021;-84
2021/09/19 03:10:30;;;;;;;20.70;16.20;;;10.70;99.90;;;;;;5069464;28;20028;-85
2021/09/19 03:12:55;;;;;;;23.02;16.90;;;10.60;99.90;;;;;;5057595;28;20021;-84
2021/09/19 03:15:22;;;;;;;21.92;15.30;;;10.60;99.90;;;;;;5057862;28;20036;-85
2021/09/19 03:17:48;;;;;;;18.33;14.25;;;10.60;99.90;;;;;;5057238;28;20329;-85
2021/09/19 03:20:16;;;;;;;20.38;14.70;;;10.60;99.90;;;;;;5056701;28;20323;-85
2021/09/19 03:22:42;;;;;;;17.38;12.90;;;10.60;99.90;;;;;;5057011;28;20370;-85
2021/09/19 03:25:09;;;;;;;19.08;14.50;;;10.60;99.90;;;;;;5056788;28;20060;-83
2021/09/19 03:27:36;;;;;;;25.60;19.15;;;10.70;99.90;;;;;;5055885;28;20109;-84
2021/09/19 03:30:02;;;;;;;23.67;17.23;;;10.70;99.90;;;;;;5057134;28;20047;-84
2021/09/19 03:32:28;;;;;;;21.48;17.13;;;10.80;99.90;;;;;;5056617;28;20028;-84
2021/09/19 03:34:54;;;;;;;22.17;15.38;;;10.80;99.90;;;;;;5066338;28;20060;-83
2021/09/19 03:37:20;;;;;;;35.97;25.17;;;10.80;99.90;;;;;;5079139;28;20032;-84
2021/09/19 03:39:45;;;;;;;35.28;24.67;;;10.90;99.90;;;;;;5059753;28;20029;-85
2021/09/19 03:42:11;;;;;;;38.33;25.27;;;10.80;99.90;;;;;;5056592;28;20075;-84
2021/09/19 03:44:37;;;;;;;36.20;25.02;;;10.70;99.90;;;;;;5056218;28;20036;-84
2021/09/19 03:47:02;;;;;;;35.28;23.33;;;10.70;99.90;;;;;;5056505;28;20073;-84
2021/09/19 03:49:28;;;;;;;31.50;22.83;;;10.70;99.90;;;;;;5056391;28;20036;-84
2021/09/19 03:51:54;;;;;;;35.25;24.58;;;10.70;99.90;;;;;;5055474;28;20025;-84
2021/09/19 03:54:20;;;;;;;38.58;25.10;;;10.70;99.90;;;;;;5056623;28;20083;-84
2021/09/19 03:56:45;;;;;;;34.17;23.65;;;10.60;99.90;;;;;;5056852;28;20086;-84
2021/09/19 03:59:11;;;;;;;37.40;24.92;;;10.60;99.90;;;;;;5057347;28;20032;-84
2021/09/19 04:01:37;;;;;;;34.40;23.55;;;10.50;99.90;;;;;;5059773;28;20025;-84
2021/09/19 04:04:03;;;;;;;32.70;20.90;;;10.50;99.90;;;;;;5058051;28;20017;-84
2021/09/19 04:06:28;;;;;;;27.88;20.13;;;10.40;99.90;;;;;;5081202;28;20017;-84
2021/09/19 04:08:54;;;;;;;33.35;22.40;;;10.40;99.90;;;;;;5087419;28;20028;-84
2021/09/19 04:11:20;;;;;;;30.98;21.00;;;10.40;99.90;;;;;;5059940;28;20100;-84
2021/09/19 04:13:45;;;;;;;27.95;19.77;;;10.40;99.90;;;;;;5056594;28;20025;-84
2021/09/19 04:16:11;;;;;;;28.13;21.25;;;10.30;99.90;;;;;;5056338;28;20029;-83
2021/09/19 04:18:37;;;;;;;28.92;20.83;;;10.30;99.90;;;;;;5055241;28;20075;-84
2021/09/19 04:21:03;;;;;;;30.23;19.60;;;10.30;99.90;;;;;;5054677;28;20366;-84
2021/09/19 04:23:28;;;;;;;24.83;17.98;;;10.20;99.90;;;;;;5055507;28;20027;-85
2021/09/19 04:25:54;;;;;;;23.20;17.35;;;10.20;99.90;;;;;;5054836;28;20029;-83
2021/09/19 04:28:20;;;;;;;21.35;15.40;;;10.10;99.90;;;;;;5056301;28;20013;-84
2021/09/19 04:30:45;;;;;;;19.50;14.88;;;10.10;99.90;;;;;;5057435;28;20071;-84
2021/09/19 04:33:11;;;;;;;17.60;12.57;;;10.10;99.90;;;;;;5056851;28;20040;-85
2021/09/19 04:35:37;;;;;;;21.52;16.23;;;10.20;99.90;;;;;;5070896;28;20056;-85
2021/09/19 04:38:02;;;;;;;23.23;17.25;;;10.20;99.90;;;;;;5076496;28;20056;-85
2021/09/19 04:40:28;;;;;;;21.08;16.75;;;10.20;99.90;;;;;;5072823;28;20131;-85
2021/09/19 04:42:54;;;;;;;22.15;16.13;;;10.20;99.90;;;;;;5056297;28;20021;-85
2021/09/19 04:45:20;;;;;;;22.20;15.88;;;10.20;99.90;;;;;;5056095;28;20021;-83
2021/09/19 04:47:46;;;;;;;20.10;15.18;;;10.30;99.90;;;;;;5055916;28;20021;-84
2021/09/19 04:50:12;;;;;;;22.35;16.23;;;10.30;99.90;;;;;;5054564;28;20032;-85
2021/09/19 04:52:37;;;;;;;24.95;17.95;;;10.30;99.90;;;;;;5055499;28;20043;-84
2021/09/19 04:55:04;;;;;;;26.73;20.30;;;10.30;99.90;;;;;;5059662;28;20035;-84
2021/09/19 04:57:29;;;;;;;30.15;20.33;;;10.20;99.90;;;;;;5060755;28;20035;-83
2021/09/19 04:59:55;;;;;;;26.75;19.17;;;10.30;99.90;;;;;;5076567;28;20044;-84
2021/09/19 05:02:21;;;;;;;23.55;18.02;;;10.20;99.90;;;;;;5064694;28;20035;-84
2021/09/19 05:04:47;;;;;;;22.05;17.13;;;10.20;99.90;;;;;;5068246;28;20059;-84
2021/09/19 05:07:12;;;;;;;20.33;15.85;;;10.20;99.90;;;;;;5076661;28;20027;-84
2021/09/19 05:09:40;;;;;;;20.88;16.23;;;10.20;99.90;;;;;;5076326;28;20393;-84
2021/09/19 05:12:06;;;;;;;26.13;18.77;;;10.20;99.90;;;;;;5065696;28;20025;-84
2021/09/19 05:14:32;;;;;;;25.23;19.58;;;10.10;99.90;;;;;;5056425;28;20080;-84
2021/09/19 05:16:58;;;;;;;23.58;17.55;;;10.20;99.90;;;;;;5056399;28;20555;-84
2021/09/19 05:19:23;;;;;;;20.98;15.73;;;10.10;99.90;;;;;;5055084;28;20485;-83
2021/09/19 05:21:49;;;;;;;22.67;16.10;;;10.20;99.90;;;;;;5056508;28;20029;-84
2021/09/19 05:24:15;;;;;;;20.55;14.30;;;10.10;99.90;;;;;;5054514;28;20055;-84
2021/09/19 05:26:41;;;;;;;18.90;13.55;;;10.20;99.90;;;;;;5057519;28;20021;-85
2021/09/19 05:29:07;;;;;;;17.48;13.90;;;10.20;99.90;;;;;;5056218;28;20027;-82
2021/09/19 05:31:32;;;;;;;15.68;11.73;;;10.20;99.90;;;;;;5057933;28;20051;-80
2021/09/19 05:33:58;;;;;;;14.82;11.00;;;10.30;99.90;;;;;;5056811;28;20033;-80
2021/09/19 05:36:24;;;;;;;13.50;10.93;;;10.30;99.90;;;;;;5067762;28;20017;-80
2021/09/19 05:38:50;;;;;;;14.45;11.23;;;10.40;99.90;;;;;;5058729;28;20043;-78
2021/09/19 05:41:16;;;;;;;11.82;9.65;;;10.40;99.90;;;;;;5054205;28;20108;-83
2021/09/19 05:43:42;;;;;;;13.82;11.65;;;10.40;99.90;;;;;;5056794;28;20096;-82
2021/09/19 05:46:08;;;;;;;12.85;10.60;;;10.50;99.90;;;;;;5055132;28;20025;-82
2021/09/19 05:48:33;;;;;;;17.33;13.23;;;10.50;99.90;;;;;;5046007;28;20025;-81
2021/09/19 05:50:59;;;;;;;19.02;13.18;;;10.60;99.90;;;;;;5040401;28;20021;-83
2021/09/19 05:53:25;;;;;;;22.63;16.50;;;10.60;99.90;;;;;;5041268;28;20086;-83
2021/09/19 05:55:51;;;;;;;21.60;16.70;;;10.60;99.90;;;;;;5041727;28;20067;-82
2021/09/19 05:58:18;;;;;;;19.33;15.32;;;10.60;99.90;;;;;;5041376;28;20061;-83
2021/09/19 06:00:44;;;;;;;25.70;18.33;;;10.60;99.90;;;;;;5043888;28;20032;-80
2021/09/19 06:03:10;;;;;;;22.55;16.52;;;10.60;99.90;;;;;;5069108;28;20055;-81
2021/09/19 06:05:35;;;;;;;20.35;16.33;;;10.70;99.90;;;;;;5054891;28;20026;-82
2021/09/19 06:08:01;;;;;;;23.25;16.27;;;10.60;99.90;;;;;;5060260;28;20100;-82
2021/09/19 06:10:27;;;;;;;20.40;16.40;;;10.60;99.90;;;;;;5059886;28;20438;-82
2021/09/19 06:12:52;;;;;;;20.77;16.50;;;10.60;99.90;;;;;;5059699;28;20036;-82
2021/09/19 06:15:18;;;;;;;20.17;16.05;;;10.60;99.90;;;;;;5059064;28;20381;-81
2021/09/19 06:17:44;;;;;;;20.55;16.35;;;10.60;99.90;;;;;;5059044;28;20033;-81
2021/09/19 06:20:13;;;;;;;22.10;16.63;;;10.60;99.90;;;;;;5058636;28;20765;-82
2021/09/19 06:22:38;;;;;;;23.92;18.10;;;10.60;99.90;;;;;;5067391;28;20032;-81
2021/09/19 06:25:05;;;;;;;23.10;18.05;;;10.70;99.90;;;;;;5064738;28;20021;-82
2021/09/19 06:27:30;;;;;;;22.77;18.65;;;10.80;99.90;;;;;;5065845;28;20033;-81
2021/09/19 06:29:56;;;;;;;22.27;17.92;;;10.80;99.90;;;;;;5066821;28;20044;-84
2021/09/19 06:32:22;;;;;;;20.23;15.70;;;10.90;99.90;;;;;;5076398;28;20036;-81
2021/09/19 06:34:47;;;;;;;20.05;16.90;;;11.00;99.90;;;;;;5082967;28;20020;-82
2021/09/19 06:37:13;;;;;;;20.20;16.55;;;11.10;99.90;;;;;;5076982;28;20029;-82
2021/09/19 06:39:39;;;;;;;19.80;16.25;;;11.20;99.90;;;;;;5071689;28;20036;-80
2021/09/19 06:42:05;;;;;;;21.60;16.98;;;11.30;99.90;;;;;;5069095;28;20024;-81
2021/09/19 06:44:30;;;;;;;17.92;14.88;;;11.40;99.90;;;;;;5051894;28;20022;-81
2021/09/19 06:46:56;;;;;;;17.77;15.07;;;11.40;99.90;;;;;;5043162;28;20026;-82
2021/09/19 06:49:23;;;;;;;16.10;13.88;;;11.50;99.90;;;;;;5042415;28;20032;-82
2021/09/19 06:51:49;;;;;;;16.73;14.52;;;11.60;99.90;;;;;;5042846;28;20024;-82
2021/09/19 06:54:15;;;;;;;16.58;14.27;;;11.70;99.90;;;;;;5041828;28;20037;-82
2021/09/19 06:56:41;;;;;;;14.98;12.57;;;11.70;99.90;;;;;;5040760;28;20039;-82
2021/09/19 06:59:07;;;;;;;15.20;13.15;;;11.70;99.90;;;;;;5041227;28;20029;-82
2021/09/19 07:01:33;;;;;;;15.73;12.70;;;11.70;99.90;;;;;;5052937;28;20021;-82
2021/09/19 07:03:58;;;;;;;14.45;12.95;;;11.80;99.90;;;;;;5077482;28;20020;-83
2021/09/19 07:06:24;;;;;;;13.98;11.90;;;11.80;99.90;;;;;;5059544;28;20387;-82
2021/09/19 07:08:50;;;;;;;13.63;11.80;;;11.80;99.90;;;;;;5060948;28;20025;-82
2021/09/19 07:11:16;;;;;;;13.20;11.43;;;11.90;99.90;;;;;;5061249;28;20067;-82
2021/09/19 07:13:42;;;;;;;12.60;11.30;;;12.00;99.90;;;;;;5061531;28;20099;-83
2021/09/19 07:16:07;;;;;;;12.63;10.43;;;12.10;99.90;;;;;;5061889;28;20102;-83
2021/09/19 07:18:33;;;;;;;13.90;10.77;;;12.30;99.90;;;;;;5060940;28;20438;-83
2021/09/19 07:21:00;;;;;;;14.10;11.52;;;12.40;99.90;;;;;;5062671;28;20029;-81
2021/09/19 07:23:25;;;;;;;15.10;11.90;;;12.50;99.90;;;;;;5064595;28;20108;-82
2021/09/19 07:25:52;;;;;;;11.63;10.43;;;12.50;99.90;;;;;;5061244;28;20498;-82
2021/09/19 07:28:18;;;;;;;11.35;9.90;;;12.70;99.90;;;;;;5060948;28;20100;-82
2021/09/19 07:30:45;;;;;;;13.15;9.45;;;12.80;99.90;;;;;;5060641;28;20025;-81
2021/09/19 07:33:12;;;;;;;10.18;9.07;;;13.00;99.90;;;;;;5064408;28;20029;-82
2021/09/19 07:35:38;;;;;;;11.00;9.50;;;13.10;99.90;;;;;;5065045;28;20025;-82
2021/09/19 07:38:04;;;;;;;13.50;9.95;;;13.20;99.90;;;;;;5061177;28;20109;-83
2021/09/19 07:40:31;;;;;;;12.63;10.02;;;13.30;99.90;;;;;;5059986;28;20036;-83
2021/09/19 07:42:59;;;;;;;11.85;10.35;;;13.40;99.90;;;;;;5060978;28;20397;-82
2021/09/19 07:45:26;;;;;;;12.80;10.20;;;13.40;99.90;;;;;;5060827;28;20050;-83
2021/09/19 07:47:53;;;;;;;10.15;8.88;;;13.40;99.90;;;;;;5061206;28;20338;-82
2021/09/19 07:50:19;;;;;;;14.40;10.98;;;13.60;99.90;;;;;;5073735;28;20009;-82
2021/09/19 07:52:48;;;;;;;12.73;11.13;;;13.90;99.90;;;;;;5080565;28;20017;-81
2021/09/19 07:55:16;;;;;;;11.35;10.13;;;14.00;99.90;;;;;;5068244;28;20068;-79
2021/09/19 07:57:43;;;;;;;12.15;10.82;;;14.10;99.90;;;;;;5060136;28;20171;-80
2021/09/19 08:00:09;;;;;;;11.95;10.23;;;14.30;99.90;;;;;;5059382;28;20033;-80
2021/09/19 08:02:35;;;;;;;12.02;10.82;;;14.60;99.90;;;;;;5065322;28;20334;-80
2021/09/19 08:05:01;;;;;;;15.02;12.35;;;14.90;99.90;;;;;;5073718;28;20021;-80
2021/09/19 08:07:26;;;;;;;12.25;11.00;;;15.00;99.10;;;;;;5068039;28;20401;-80
2021/09/19 08:09:52;;;;;;;15.02;10.27;;;14.90;99.10;;;;;;5058351;28;20020;-80
2021/09/19 08:12:18;;;;;;;12.68;11.30;;;15.00;99.30;;;;;;5060329;28;20025;-80
2021/09/19 08:14:44;;;;;;;14.68;12.10;;;15.20;98.70;;;;;;5059972;28;20033;-81
2021/09/19 08:17:11;;;;;;;13.15;11.75;;;15.10;98.10;;;;;;5056694;28;20489;-80
2021/09/19 08:19:36;;;;;;;15.85;13.10;;;14.90;98.50;;;;;;5064590;28;20045;-80
2021/09/19 08:22:03;;;;;;;15.55;12.65;;;14.70;98.70;;;;;;5069413;28;20021;-79
2021/09/19 08:24:28;;;;;;;13.20;11.45;;;14.60;99.60;;;;;;5060219;28;20111;-80
2021/09/19 08:26:54;;;;;;;16.73;12.05;;;14.40;99.90;;;;;;5057340;28;20469;-79
2021/09/19 08:29:22;;;;;;;13.98;12.38;;;14.60;99.90;;;;;;5057888;28;20024;-80
2021/09/19 08:31:47;;;;;;;15.95;12.18;;;14.80;99.90;;;;;;5058884;28;20043;-80
2021/09/19 08:34:13;;;;;;;14.48;12.30;;;14.90;99.60;;;;;;5069124;28;20462;-80
2021/09/19 08:36:39;;;;;;;13.93;12.13;;;15.10;98.90;;;;;;5061439;28;20627;-80
2021/09/19 08:39:07;;;;;;;16.20;12.60;;;15.30;98.90;;;;;;5057841;28;20021;-80
2021/09/19 08:41:33;;;;;;;14.00;11.57;;;15.60;97.70;;;;;;5057422;28;20025;-80
2021/09/19 08:43:59;;;;;;;14.20;12.48;;;15.90;97.40;;;;;;5056093;28;20040;-79
2021/09/19 08:46:25;;;;;;;14.85;12.52;;;16.20;96.50;;;;;;5058328;28;20017;-81
2021/09/19 08:48:51;;;;;;;13.18;11.38;;;16.40;95.10;;;;;;5059376;28;20029;-80
2021/09/19 08:51:18;;;;;;;18.05;13.30;;;16.50;94.90;;;;;;5067013;28;20054;-79
2021/09/19 08:53:44;;;;;;;13.57;12.02;;;16.50;94.30;;;;;;5054746;28;20034;-82
2021/09/19 08:56:10;;;;;;;18.48;14.27;;;16.30;95.00;;;;;;5057028;28;20032;-80
2021/09/19 08:58:40;;;;;;;13.90;12.38;;;16.40;94.70;;;;;;5057301;28;20175;-80
2021/09/19 09:01:06;;;;;;;19.05;13.95;;;16.40;94.60;;;;;;5056950;28;20047;-80
2021/09/19 09:03:32;;;;;;;18.42;14.07;;;16.50;94.40;;;;;;5066025;28;20422;-79
2021/09/19 09:06:00;;;;;;;14.70;13.05;;;16.40;94.10;;;;;;5072485;28;20016;-80
2021/09/19 09:08:26;;;;;;;16.83;13.48;;;16.40;95.00;;;;;;5055295;28;20021;-80
2021/09/19 09:10:55;;;;;;;16.38;13.35;;;16.40;94.60;;;;;;5057844;28;20028;-80
2021/09/19 09:13:24;;;;;;;18.83;14.90;;;16.30;94.50;;;;;;5055995;28;20029;-80
2021/09/19 09:16:00;;;;;;;14.43;12.93;;;16.10;95.60;;;;;;5056761;28;20086;-81
2021/09/19 09:18:31;;;;;;;17.02;13.88;;;16.20;95.80;;;;;;5059943;28;20025;-80
2021/09/19 09:21:30;;;;;;;16.85;13.38;;;16.30;95.80;;;;;;5068509;28;20155;-79
2021/09/19 09:24:01;;;;;;;20.55;15.13;;;16.30;95.30;;;;;;5050199;28;20220;-81
2021/09/19 09:26:31;;;;;;;17.48;15.30;;;16.10;95.90;;;;;;5057051;28;20087;-80
2021/09/19 09:29:02;;;;;;;18.35;15.05;;;16.10;96.30;;;;;;5059173;28;20071;-80
2021/09/19 09:31:37;;;;;;;20.98;15.25;;;16.10;96.70;;;;;;5056040;28;20033;-80
2021/09/19 09:34:15;;;;;;;19.30;15.48;;;16.60;95.60;;;;;;5068485;28;20074;-79
2021/09/19 09:36:41;;;;;;;18.13;14.02;;;17.00;94.60;;;;;;5056275;28;20307;-79
2021/09/19 09:39:21;;;;;;;16.67;13.70;;;17.00;94.10;;;;;;5056538;28;20478;-80
2021/09/19 09:41:48;;;;;;;17.23;14.35;;;17.20;94.10;;;;;;5039758;28;20052;-80
2021/09/19 09:44:35;;;;;;;18.92;14.10;;;17.20;93.60;;;;;;5059503;28;20021;-79
2021/09/19 09:47:09;;;;;;;16.48;13.10;;;17.20;93.30;;;;;;5061667;28;20029;-80
2021/09/19 09:49:47;;;;;;;16.20;12.45;;;17.30;93.80;;;;;;5063175;28;20249;-80
2021/09/19 09:52:17;;;;;;;16.73;12.80;;;17.70;93.50;;;;;;5065955;28;20025;-80
2021/09/19 09:54:58;;;;;;;15.90;12.98;;;17.90;92.20;;;;;;5056552;28;20148;-81
2021/09/19 09:57:36;;;;;;;14.50;11.88;;;18.00;92.20;;;;;;5057902;28;20035;-81
2021/09/19 10:00:10;;;;;;;11.27;10.10;;;18.20;92.00;;;;;;5058121;28;20489;-81
2021/09/19 10:02:39;;;;;;;13.68;11.60;;;18.40;91.00;;;;;;5065869;28;20517;-81
2021/09/19 10:05:06;;;;;;;10.65;9.30;;;18.60;90.10;;;;;;5071214;28;20119;-80
2021/09/19 10:07:34;;;;;;;11.40;9.27;;;18.90;90.00;;;;;;5062814;28;20418;-81
2021/09/19 10:10:01;;;;;;;10.48;8.85;;;18.80;85.90;;;;;;5061676;28;20031;-80
2021/09/19 10:12:27;;;;;;;14.82;8.77;;;18.70;84.50;;;;;;5060224;28;20106;-81
2021/09/19 10:14:54;;;;;;;7.95;6.60;;;19.00;83.80;;;;;;5061034;28;20045;-81
2021/09/19 10:17:22;;;;;;;8.52;7.32;;;19.40;82.50;;;;;;5063239;28;20055;-80
2021/09/19 10:19:48;;;;;;;6.70;5.80;;;19.70;79.20;;;;;;5062681;28;20044;-81
2021/09/19 10:22:21;;;;;;;10.60;9.40;;;19.90;79.40;;;;;;5068621;28;20021;-81
2021/09/19 10:24:47;;;;;;;10.40;7.82;;;20.30;75.00;;;;;;5058769;28;20493;-81
2021/09/19 10:27:26;;;;;;;9.57;8.38;;;20.20;75.70;;;;;;5060932;28;20023;-80
2021/09/19 10:29:59;;;;;;;7.97;6.93;;;20.10;74.50;;;;;;5045197;28;20025;-81
2021/09/19 10:32:44;;;;;;;6.60;5.93;;;19.80;76.90;;;;;;5051322;28;20474;-81
2021/09/19 10:35:28;;;;;;;8.30;6.70;;;19.50;77.10;;;;;;5070086;28;20108;-81
2021/09/19 10:38:00;;;;;;;12.05;8.05;;;19.80;78.20;;;;;;5061404;28;20436;-80
2021/09/19 10:40:41;;;;;;;9.98;8.32;;;20.10;76.10;;;;;;5058682;28;20029;-80
2021/09/19 10:43:09;;;;;;;9.30;8.25;;;19.70;77.10;;;;;;5070609;28;20017;-81
2021/09/19 10:45:45;;;;;;;7.80;7.00;;;19.50;79.90;;;;;;5068796;28;20025;-81
2021/09/19 10:48:27;;;;;;;10.55;8.27;;;19.90;79.70;;;;;;5061061;28;20025;-80
2021/09/19 10:51:04;;;;;;;9.38;8.02;;;20.40;76.70;;;;;;5081016;28;20035;-81
2021/09/19 10:53:30;;;;;;;7.15;6.45;;;20.30;76.60;;;;;;5061090;28;20033;-81
2021/09/19 10:56:01;;;;;;;6.75;6.13;;;20.50;76.90;;;;;;5060642;28;20040;-81
2021/09/19 10:58:31;;;;;;;8.50;7.33;;;21.00;76.00;;;;;;5058925;28;20032;-80
2021/09/19 11:01:39;;;;;;;8.35;7.45;;;21.40;71.00;;;;;;5056827;28;20105;-80
2021/09/19 11:04:10;;;;;;;7.18;6.53;;;21.20;70.20;;;;;;5008091;28;20111;-81
2021/09/19 11:06:38;;;;;;;9.25;6.97;;;20.70;72.50;;;;;;5060830;28;20025;-81
2021/09/19 11:09:23;;;;;;;8.98;6.38;;;20.20;73.30;;;;;;5059743;28;20077;-80
2021/09/19 11:12:08;;;;;;;7.07;6.38;;;19.60;76.00;;;;;;5060756;28;20060;-81
2021/09/19 11:14:56;;;;;;;13.57;6.70;;;19.40;77.80;;;;;;5060659;28;20021;-81
2021/09/19 11:17:23;;;;;;;8.63;6.72;;;19.70;76.90;;;;;;5073649;28;20021;-80
2021/09/19 11:20:20;;;;;;;6.65;5.95;;;19.80;73.90;;;;;;5067429;28;20027;-80
2021/09/19 11:22:51;;;;;;;7.32;6.32;;;20.00;72.60;;;;;;5071575;28;20401;-80
2021/09/19 11:25:18;;;;;;;6.20;5.60;;;20.30;71.40;;;;;;5065182;28;20129;-80
2021/09/19 11:27:47;;;;;;;6.97;5.25;;;19.90;71.70;;;;;;5061790;28;20021;-80
2021/09/19 11:30:17;;;;;;;7.38;5.70;;;19.50;74.20;;;;;;5061253;28;20127;-80
2021/09/19 11:32:44;;;;;;;5.57;5.00;;;19.10;75.50;;;;;;5066769;28;20032;-79
2021/09/19 11:35:10;;;;;;;8.40;5.70;;;19.30;75.80;;;;;;5070233;28;20036;-80
2021/09/19 11:37:36;;;;;;;3.90;3.55;;;19.90;72.70;;;;;;5059627;28;20332;-80
2021/09/19 11:40:07;;;;;;;2.95;2.30;;;21.00;72.20;;;;;;5057712;28;20028;-80
2021/09/19 11:42:33;;;;;;;3.50;3.20;;;23.10;68.40;;;;;;5046977;28;20076;-79
2021/09/19 11:44:58;;;;;;;5.38;3.67;;;25.10;59.00;;;;;;5038016;28;20470;-80
2021/09/19 11:47:25;;;;;;;3.78;3.38;;;25.00;55.90;;;;;;5039231;28;20527;-79
2021/09/19 11:49:53;;;;;;;5.90;5.40;;;23.80;57.50;;;;;;5061284;28;20025;-80
2021/09/19 11:52:21;;;;;;;5.05;4.25;;;22.60;59.90;;;;;;5070845;28;20081;-80
2021/09/19 11:54:47;;;;;;;5.20;4.70;;;21.60;64.40;;;;;;5079218;28;20036;-79
2021/09/19 11:57:15;;;;;;;6.07;5.47;;;20.70;66.60;;;;;;5070210;28;20339;-80
2021/09/19 11:59:42;;;;;;;4.80;4.28;;;20.20;68.60;;;;;;5053958;28;20040;-80
2021/09/19 12:02:09;;;;;;;3.42;3.10;;;20.30;70.30;;;;;;5058150;28;20021;-80
2021/09/19 12:04:35;;;;;;;4.15;3.83;;;20.70;70.10;;;;;;5071322;28;20036;-80
2021/09/19 12:07:02;;;;;;;3.97;3.60;;;21.30;68.10;;;;;;5080093;28;20035;-81
2021/09/19 12:09:28;;;;;;;6.25;4.88;;;21.80;65.30;;;;;;5081410;28;20028;-85
2021/09/19 12:11:55;;;;;;;4.75;4.25;;;21.80;63.60;;;;;;5073967;28;20040;-81
2021/09/19 12:14:27;;;;;;;4.38;3.97;;;21.60;63.70;;;;;;5058245;28;20078;-81
2021/09/19 12:17:04;;;;;;;3.70;3.40;;;21.10;65.50;;;;;;5060394;28;20027;-80
2021/09/19 12:19:35;;;;;;;4.05;3.75;;;21.10;67.00;;;;;;5064680;28;20047;-81
2021/09/19 12:22:17;;;;;;;3.45;2.70;;;21.10;65.80;;;;;;5065827;28;20434;-80
2021/09/19 12:24:43;;;;;;;3.00;2.78;;;20.90;67.00;;;;;;5059183;28;20029;-80
2021/09/19 12:27:16;;;;;;;3.33;3.05;;;21.10;66.50;;;;;;5057416;28;20401;-80
2021/09/19 12:30:06;;;;;;;2.60;2.40;;;21.60;65.30;;;;;;5059204;28;20024;-80
2021/09/19 12:32:42;;;;;;;4.70;2.88;;;22.40;63.60;;;;;;5064122;28;20029;-81
2021/09/19 12:35:15;;;;;;;4.43;4.10;;;23.00;60.30;;;;;;5069832;28;20029;-81
2021/09/19 12:37:46;;;;;;;4.90;3.63;;;23.20;58.10;;;;;;5079836;28;20104;-81